sensor_id;sensor_type;location;lat;lon;timestamp;pressure;altitude;pressure_sealevel;temperature;humidity
56825;BME280;42705;50.326;18.772;2023-02-18T00:03:26;98135.84;;;8.41;78.49
56825;BME280;42705;50.326;18.772;2023-02-18T00:08:48;98136.02;;;8.50;78.13
56825;BME280;42705;50.326;18.772;2023-02-18T00:14:12;98148.98;;;8.57;78.01
56825;BME280;42705;50.326;18.772;2023-02-18T00:19:34;98171.36;;;8.68;77.66
56825;BME280;42705;50.326;18.772;2023-02-18T00:24:55;98244.66;;;8.78;77.93
56825;BME280;42705;50.326;18.772;2023-02-18T00:30:16;98248.77;;;8.77;77.21
56825;BME280;42705;50.326;18.772;2023-02-18T00:35:37;98262.95;;;8.72;76.47
56825;BME280;42705;50.326;18.772;2023-02-18T00:40:59;98250.45;;;8.63;75.39
56825;BME280;42705;50.326;18.772;2023-02-18T00:46:22;98266.13;;;8.53;74.86
56825;BME280;42705;50.326;18.772;2023-02-18T00:51:43;98268.25;;;8.44;74.71
56825;BME280;42705;50.326;18.772;2023-02-18T00:57:05;98259.85;;;8.36;74.54
56825;BME280;42705;50.326;18.772;2023-02-18T01:02:26;98256.08;;;8.31;74.91
56825;BME280;42705;50.326;18.772;2023-02-18T01:07:47;98265.83;;;8.25;74.88
56825;BME280;42705;50.326;18.772;2023-02-18T01:13:09;98256.10;;;8.17;74.36
56825;BME280;42705;50.326;18.772;2023-02-18T01:18:33;98252.98;;;8.15;74.46
56825;BME280;42705;50.326;18.772;2023-02-18T01:23:54;98254.46;;;8.11;73.89
56825;BME280;42705;50.326;18.772;2023-02-18T01:29:15;98261.96;;;8.11;73.25
56825;BME280;42705;50.326;18.772;2023-02-18T01:34:37;98282.89;;;8.12;72.57
56825;BME280;42705;50.326;18.772;2023-02-18T01:39:58;98293.11;;;8.15;70.59
56825;BME280;42705;50.326;18.772;2023-02-18T01:50:57;98292.74;;;8.05;69.43
56825;BME280;42705;50.326;18.772;2023-02-18T01:56:28;98296.81;;;8.04;67.63
56825;BME280;42705;50.326;18.772;2023-02-18T02:01:51;98289.78;;;8.05;64.90
56825;BME280;42705;50.326;18.772;2023-02-18T02:07:15;98279.40;;;8.00;64.39
56825;BME280;42705;50.326;18.772;2023-02-18T02:35:15;98274.63;;;7.58;63.07
56825;BME280;42705;50.326;18.772;2023-02-18T02:46:34;98280.27;;;7.48;64.02
56825;BME280;42705;50.326;18.772;2023-02-18T02:52:23;98283.58;;;7.46;64.86
56825;BME280;42705;50.326;18.772;2023-02-18T02:57:54;98297.67;;;7.42;65.09
56825;BME280;42705;50.326;18.772;2023-02-18T03:20:56;98322.69;;;7.31;60.44
56825;BME280;42705;50.326;18.772;2023-02-18T03:26:21;98325.67;;;7.21;60.22
56825;BME280;42705;50.326;18.772;2023-02-18T03:31:46;98323.58;;;7.13;60.05
56825;BME280;42705;50.326;18.772;2023-02-18T03:37:09;98337.05;;;7.05;60.36
56825;BME280;42705;50.326;18.772;2023-02-18T03:42:32;98330.27;;;6.98;60.39
56825;BME280;42705;50.326;18.772;2023-02-18T03:47:53;98335.70;;;6.93;60.48
56825;BME280;42705;50.326;18.772;2023-02-18T03:53:14;98334.05;;;6.89;60.60
56825;BME280;42705;50.326;18.772;2023-02-18T03:58:35;98342.45;;;6.84;60.82
56825;BME280;42705;50.326;18.772;2023-02-18T04:03:57;98354.59;;;6.79;60.02
56825;BME280;42705;50.326;18.772;2023-02-18T04:09:18;98355.98;;;6.82;58.10
56825;BME280;42705;50.326;18.772;2023-02-18T04:14:39;98361.91;;;6.84;56.77
56825;BME280;42705;50.326;18.772;2023-02-18T04:20:00;98368.30;;;6.87;54.63
56825;BME280;42705;50.326;18.772;2023-02-18T04:25:24;98370.44;;;6.88;53.56
56825;BME280;42705;50.326;18.772;2023-02-18T04:30:46;98374.59;;;6.86;52.32
56825;BME280;42705;50.326;18.772;2023-02-18T04:36:08;98374.56;;;6.84;51.50
56825;BME280;42705;50.326;18.772;2023-02-18T04:41:29;98371.13;;;6.79;51.02
56825;BME280;42705;50.326;18.772;2023-02-18T04:46:50;98378.05;;;6.70;51.27
56825;BME280;42705;50.326;18.772;2023-02-18T04:52:12;98386.77;;;6.60;51.39
56825;BME280;42705;50.326;18.772;2023-02-18T04:57:33;98393.31;;;6.52;51.12
56825;BME280;42705;50.326;18.772;2023-02-18T05:02:54;98386.60;;;6.49;50.72
56825;BME280;42705;50.326;18.772;2023-02-18T05:08:16;98385.01;;;6.47;50.51
56825;BME280;42705;50.326;18.772;2023-02-18T05:13:39;98392.33;;;6.46;50.13
56825;BME280;42705;50.326;18.772;2023-02-18T05:19:01;98388.44;;;6.45;49.72
56825;BME280;42705;50.326;18.772;2023-02-18T05:24:22;98384.33;;;6.45;49.63
56825;BME280;42705;50.326;18.772;2023-02-18T05:29:43;98386.98;;;6.44;49.36
56825;BME280;42705;50.326;18.772;2023-02-18T05:35:05;98390.50;;;6.43;49.35
56825;BME280;42705;50.326;18.772;2023-02-18T05:40:26;98388.95;;;6.38;48.80
56825;BME280;42705;50.326;18.772;2023-02-18T05:45:47;98396.30;;;6.35;48.69
56825;BME280;42705;50.326;18.772;2023-02-18T05:51:09;98396.02;;;6.36;48.08
56825;BME280;42705;50.326;18.772;2023-02-18T05:56:30;98398.79;;;6.39;47.77
56825;BME280;42705;50.326;18.772;2023-02-18T06:01:52;98392.42;;;6.41;47.70
56825;BME280;42705;50.326;18.772;2023-02-18T06:07:13;98393.77;;;6.41;47.42
56825;BME280;42705;50.326;18.772;2023-02-18T06:12:34;98402.38;;;6.44;46.62
56825;BME280;42705;50.326;18.772;2023-02-18T06:17:56;98409.35;;;6.51;46.10
56825;BME280;42705;50.326;18.772;2023-02-18T06:23:17;98413.84;;;6.58;45.76
56825;BME280;42705;50.326;18.772;2023-02-18T06:28:38;98423.60;;;6.65;45.22
56825;BME280;42705;50.326;18.772;2023-02-18T06:34:00;98419.59;;;6.70;45.42
56825;BME280;42705;50.326;18.772;2023-02-18T06:39:21;98419.63;;;6.74;45.22
56825;BME280;42705;50.326;18.772;2023-02-18T06:44:42;98426.80;;;6.78;44.70
56825;BME280;42705;50.326;18.772;2023-02-18T06:50:04;98424.58;;;6.82;45.01
56825;BME280;42705;50.326;18.772;2023-02-18T06:55:26;98430.31;;;6.84;45.00
56825;BME280;42705;50.326;18.772;2023-02-18T07:00:47;98441.72;;;6.87;45.08
56825;BME280;42705;50.326;18.772;2023-02-18T07:06:08;98434.95;;;6.89;45.44
56825;BME280;42705;50.326;18.772;2023-02-18T07:11:29;98432.11;;;6.90;45.66
56825;BME280;42705;50.326;18.772;2023-02-18T07:16:50;98430.85;;;6.92;45.37
56825;BME280;42705;50.326;18.772;2023-02-18T07:22:11;98439.00;;;6.95;45.25
56825;BME280;42705;50.326;18.772;2023-02-18T07:27:32;98446.20;;;6.97;44.48
56825;BME280;42705;50.326;18.772;2023-02-18T07:32:54;98438.60;;;6.96;44.42
56825;BME280;42705;50.326;18.772;2023-02-18T07:38:15;98448.29;;;6.94;44.44
56825;BME280;42705;50.326;18.772;2023-02-18T07:43:36;98441.84;;;6.94;44.79
56825;BME280;42705;50.326;18.772;2023-02-18T07:48:58;98436.73;;;6.98;44.93
56825;BME280;42705;50.326;18.772;2023-02-18T07:54:19;98455.52;;;7.00;44.99
56825;BME280;42705;50.326;18.772;2023-02-18T07:59:40;98449.19;;;7.01;44.56
56825;BME280;42705;50.326;18.772;2023-02-18T08:05:05;98445.09;;;7.05;44.85
56825;BME280;42705;50.326;18.772;2023-02-18T08:10:26;98442.70;;;7.06;44.89
56825;BME280;42705;50.326;18.772;2023-02-18T08:15:47;98437.02;;;7.07;44.96
56825;BME280;42705;50.326;18.772;2023-02-18T08:21:09;98445.06;;;7.07;44.61
56825;BME280;42705;50.326;18.772;2023-02-18T08:26:30;98440.21;;;7.09;44.78
56825;BME280;42705;50.326;18.772;2023-02-18T08:31:51;98440.23;;;7.11;45.28
56825;BME280;42705;50.326;18.772;2023-02-18T08:37:14;98445.01;;;7.13;45.22
56825;BME280;42705;50.326;18.772;2023-02-18T08:42:35;98451.05;;;7.13;45.40
56825;BME280;42705;50.326;18.772;2023-02-18T08:47:56;98434.03;;;7.15;45.81
56825;BME280;42705;50.326;18.772;2023-02-18T08:53:18;98444.91;;;7.20;46.20
56825;BME280;42705;50.326;18.772;2023-02-18T08:58:40;98454.84;;;7.27;46.85
56825;BME280;42705;50.326;18.772;2023-02-18T09:04:02;98446.25;;;7.32;47.20
56825;BME280;42705;50.326;18.772;2023-02-18T09:09:24;98439.14;;;7.34;47.39
56825;BME280;42705;50.326;18.772;2023-02-18T09:14:46;98442.54;;;7.35;47.67
56825;BME280;42705;50.326;18.772;2023-02-18T09:20:08;98444.20;;;7.36;47.97
56825;BME280;42705;50.326;18.772;2023-02-18T09:25:29;98444.69;;;7.35;48.34
56825;BME280;42705;50.326;18.772;2023-02-18T09:30:51;98446.82;;;7.36;48.82
56825;BME280;42705;50.326;18.772;2023-02-18T09:36:13;98442.54;;;7.40;49.20
56825;BME280;42705;50.326;18.772;2023-02-18T09:41:44;98443.33;;;7.46;49.37
56825;BME280;42705;50.326;18.772;2023-02-18T09:47:20;98427.93;;;7.49;49.31
56825;BME280;42705;50.326;18.772;2023-02-18T09:52:45;98441.89;;;7.46;49.30
56825;BME280;42705;50.326;18.772;2023-02-18T09:58:13;98446.59;;;7.37;49.70
56825;BME280;42705;50.326;18.772;2023-02-18T10:03:35;98447.95;;;7.26;50.22
56825;BME280;42705;50.326;18.772;2023-02-18T10:09:02;98451.37;;;7.18;50.59
56825;BME280;42705;50.326;18.772;2023-02-18T10:14:24;98454.69;;;7.11;51.13
56825;BME280;42705;50.326;18.772;2023-02-18T10:19:47;98446.23;;;7.03;51.60
56825;BME280;42705;50.326;18.772;2023-02-18T10:25:17;98470.19;;;6.92;52.31
56825;BME280;42705;50.326;18.772;2023-02-18T10:30:41;98452.30;;;6.73;52.90
56825;BME280;42705;50.326;18.772;2023-02-18T10:36:22;98443.98;;;6.59;53.16
56825;BME280;42705;50.326;18.772;2023-02-18T10:47:38;98425.86;;;6.39;54.70
56825;BME280;42705;50.326;18.772;2023-02-18T10:53:13;98424.27;;;6.30;55.46
56825;BME280;42705;50.326;18.772;2023-02-18T10:58:45;98421.08;;;6.19;56.43
56825;BME280;42705;50.326;18.772;2023-02-18T11:04:13;98422.37;;;6.06;57.48
56825;BME280;42705;50.326;18.772;2023-02-18T11:09:50;98401.19;;;5.94;58.29
56825;BME280;42705;50.326;18.772;2023-02-18T11:20:35;98378.17;;;5.91;59.63
56825;BME280;42705;50.326;18.772;2023-02-18T11:26:05;98369.14;;;5.89;60.23
56825;BME280;42705;50.326;18.772;2023-02-18T11:31:39;98365.51;;;5.86;60.70
56825;BME280;42705;50.326;18.772;2023-02-18T11:37:17;98344.52;;;5.84;61.36
56825;BME280;42705;50.326;18.772;2023-02-18T11:42:39;98331.64;;;5.82;62.35
56825;BME280;42705;50.326;18.772;2023-02-18T11:48:06;98321.48;;;5.76;62.76
56825;BME280;42705;50.326;18.772;2023-02-18T11:53:34;98310.90;;;5.67;63.43
56825;BME280;42705;50.326;18.772;2023-02-18T11:58:56;98302.58;;;5.62;63.87
56825;BME280;42705;50.326;18.772;2023-02-18T12:04:20;98287.06;;;5.63;64.31
56825;BME280;42705;50.326;18.772;2023-02-18T12:09:49;98277.90;;;5.68;64.79
56825;BME280;42705;50.326;18.772;2023-02-18T12:15:17;98273.98;;;5.69;65.04
56825;BME280;42705;50.326;18.772;2023-02-18T12:27:15;98256.75;;;5.75;65.88
56825;BME280;42705;50.326;18.772;2023-02-18T12:33:07;98230.95;;;5.87;66.32
56825;BME280;42705;50.326;18.772;2023-02-18T12:44:40;98187.89;;;6.16;66.59
56825;BME280;42705;50.326;18.772;2023-02-18T13:01:07;98154.48;;;6.55;67.08
56825;BME280;42705;50.326;18.772;2023-02-18T13:06:46;98139.03;;;6.53;67.18
56825;BME280;42705;50.326;18.772;2023-02-18T13:17:56;98113.59;;;6.57;67.46
56825;BME280;42705;50.326;18.772;2023-02-18T13:23:21;98104.40;;;6.52;67.33
56825;BME280;42705;50.326;18.772;2023-02-18T13:40:25;98057.73;;;6.50;68.43
56825;BME280;42705;50.326;18.772;2023-02-18T13:51:46;98031.30;;;6.40;68.65
56825;BME280;42705;50.326;18.772;2023-02-18T13:57:18;98035.44;;;6.42;69.20
56825;BME280;42705;50.326;18.772;2023-02-18T14:02:55;98010.05;;;6.34;69.15
56825;BME280;42705;50.326;18.772;2023-02-18T14:08:34;97998.30;;;6.40;69.72
56825;BME280;42705;50.326;18.772;2023-02-18T14:19:29;97966.06;;;6.55;69.76
56825;BME280;42705;50.326;18.772;2023-02-18T14:24:55;97947.44;;;6.36;69.80
56825;BME280;42705;50.326;18.772;2023-02-18T14:41:43;97892.25;;;6.13;70.24
56825;BME280;42705;50.326;18.772;2023-02-18T14:52:53;97866.94;;;6.00;70.70
56825;BME280;42705;50.326;18.772;2023-02-18T15:03:51;97842.16;;;5.96;71.48
56825;BME280;42705;50.326;18.772;2023-02-18T15:09:19;97829.64;;;5.98;71.65
56825;BME280;42705;50.326;18.772;2023-02-18T15:14:41;97817.06;;;5.89;71.74
56825;BME280;42705;50.326;18.772;2023-02-18T15:20:06;97809.73;;;5.77;72.35
56825;BME280;42705;50.326;18.772;2023-02-18T15:25:28;97801.50;;;5.73;73.20
56825;BME280;42705;50.326;18.772;2023-02-18T15:30:50;97788.70;;;5.75;73.92
56825;BME280;42705;50.326;18.772;2023-02-18T15:36:13;97772.35;;;5.76;74.39
56825;BME280;42705;50.326;18.772;2023-02-18T15:41:35;97768.73;;;5.80;74.81
56825;BME280;42705;50.326;18.772;2023-02-18T15:47:01;97759.67;;;5.80;75.29
56825;BME280;42705;50.326;18.772;2023-02-18T15:52:32;97763.58;;;5.84;75.82
56825;BME280;42705;50.326;18.772;2023-02-18T15:57:54;97760.88;;;5.91;76.27
56825;BME280;42705;50.326;18.772;2023-02-18T16:04:04;97746.30;;;6.00;76.69
56825;BME280;42705;50.326;18.772;2023-02-18T16:09:25;97745.08;;;6.09;76.84
56825;BME280;42705;50.326;18.772;2023-02-18T16:14:48;97749.02;;;6.24;77.51
56825;BME280;42705;50.326;18.772;2023-02-18T16:20:21;97743.44;;;6.41;77.87
56825;BME280;42705;50.326;18.772;2023-02-18T16:25:47;97731.99;;;6.57;78.39
56825;BME280;42705;50.326;18.772;2023-02-18T16:31:12;97736.88;;;6.73;78.77
56825;BME280;42705;50.326;18.772;2023-02-18T16:36:34;97736.30;;;6.86;79.18
56825;BME280;42705;50.326;18.772;2023-02-18T16:41:56;97748.80;;;7.02;79.73
56825;BME280;42705;50.326;18.772;2023-02-18T16:47:18;97753.09;;;7.19;80.28
56825;BME280;42705;50.326;18.772;2023-02-18T16:52:40;97756.66;;;7.35;80.63
56825;BME280;42705;50.326;18.772;2023-02-18T16:58:01;97772.61;;;7.57;81.29
56825;BME280;42705;50.326;18.772;2023-02-18T17:03:23;97771.03;;;7.81;81.20
56825;BME280;42705;50.326;18.772;2023-02-18T17:08:45;97774.73;;;7.98;80.71
56825;BME280;42705;50.326;18.772;2023-02-18T17:14:12;97781.77;;;8.10;80.32
56825;BME280;42705;50.326;18.772;2023-02-18T17:19:34;97775.59;;;8.21;79.52
56825;BME280;42705;50.326;18.772;2023-02-18T17:24:55;97764.20;;;8.25;79.17
56825;BME280;42705;50.326;18.772;2023-02-18T17:30:17;97771.47;;;8.30;78.33
56825;BME280;42705;50.326;18.772;2023-02-18T17:35:38;97778.18;;;8.33;77.75
56825;BME280;42705;50.326;18.772;2023-02-18T17:40:59;97788.63;;;8.34;77.32
56825;BME280;42705;50.326;18.772;2023-02-18T17:46:20;97792.75;;;8.35;76.96
56825;BME280;42705;50.326;18.772;2023-02-18T17:51:43;97806.59;;;8.38;76.68
56825;BME280;42705;50.326;18.772;2023-02-18T17:57:04;97811.73;;;8.39;76.12
56825;BME280;42705;50.326;18.772;2023-02-18T18:02:26;97814.52;;;8.40;75.58
56825;BME280;42705;50.326;18.772;2023-02-18T18:07:48;97824.14;;;8.40;75.50
56825;BME280;42705;50.326;18.772;2023-02-18T18:13:35;97830.47;;;8.39;75.01
56825;BME280;42705;50.326;18.772;2023-02-18T18:18:55;97831.63;;;8.42;74.69
56825;BME280;42705;50.326;18.772;2023-02-18T18:24:17;97835.33;;;8.45;74.21
56825;BME280;42705;50.326;18.772;2023-02-18T18:29:38;97841.43;;;8.49;73.99
56825;BME280;42705;50.326;18.772;2023-02-18T18:34:59;97846.70;;;8.52;73.55
56825;BME280;42705;50.326;18.772;2023-02-18T18:40:22;97853.30;;;8.56;73.07
56825;BME280;42705;50.326;18.772;2023-02-18T18:45:45;97864.66;;;8.62;72.30
56825;BME280;42705;50.326;18.772;2023-02-18T18:51:19;97872.70;;;8.63;71.77
56825;BME280;42705;50.326;18.772;2023-02-18T18:56:41;97873.32;;;8.64;71.52
56825;BME280;42705;50.326;18.772;2023-02-18T19:02:02;97889.40;;;8.63;71.11
56825;BME280;42705;50.326;18.772;2023-02-18T19:07:24;97902.05;;;8.64;70.74
56825;BME280;42705;50.326;18.772;2023-02-18T19:12:45;97897.16;;;8.60;70.28
56825;BME280;42705;50.326;18.772;2023-02-18T19:18:20;97896.89;;;8.58;70.58
56825;BME280;42705;50.326;18.772;2023-02-18T19:24:12;97898.49;;;8.55;70.88
56825;BME280;42705;50.326;18.772;2023-02-18T19:29:37;97902.73;;;8.55;70.43
56825;BME280;42705;50.326;18.772;2023-02-18T19:35:12;97895.44;;;8.52;70.32
56825;BME280;42705;50.326;18.772;2023-02-18T19:40:45;97899.76;;;8.52;70.25
56825;BME280;42705;50.326;18.772;2023-02-18T19:46:45;97892.10;;;8.55;70.32
56825;BME280;42705;50.326;18.772;2023-02-18T19:52:25;97908.00;;;8.56;69.96
56825;BME280;42705;50.326;18.772;2023-02-18T19:57:48;97917.27;;;8.61;69.93
56825;BME280;42705;50.326;18.772;2023-02-18T20:03:09;97918.84;;;8.63;69.52
56825;BME280;42705;50.326;18.772;2023-02-18T20:08:31;97920.19;;;8.62;69.33
56825;BME280;42705;50.326;18.772;2023-02-18T20:13:57;97932.77;;;8.63;69.45
56825;BME280;42705;50.326;18.772;2023-02-18T20:19:18;97927.30;;;8.66;69.09
56825;BME280;42705;50.326;18.772;2023-02-18T20:24:43;97933.26;;;8.65;69.09
56825;BME280;42705;50.326;18.772;2023-02-18T20:30:06;97948.78;;;8.67;69.20
56825;BME280;42705;50.326;18.772;2023-02-18T20:35:29;97965.23;;;8.62;69.35
56825;BME280;42705;50.326;18.772;2023-02-18T20:40:51;98003.69;;;8.56;69.85
56825;BME280;42705;50.326;18.772;2023-02-18T20:46:15;98032.20;;;8.45;70.23
56825;BME280;42705;50.326;18.772;2023-02-18T20:51:36;98032.67;;;8.12;70.84
56825;BME280;42705;50.326;18.772;2023-02-18T20:56:58;98054.81;;;7.82;71.63
56825;BME280;42705;50.326;18.772;2023-02-18T21:02:19;98052.05;;;7.66;72.03
56825;BME280;42705;50.326;18.772;2023-02-18T21:07:42;98072.58;;;7.51;72.63
56825;BME280;42705;50.326;18.772;2023-02-18T21:13:03;98078.06;;;7.35;73.09
56825;BME280;42705;50.326;18.772;2023-02-18T21:18:24;98079.00;;;7.26;73.16
56825;BME280;42705;50.326;18.772;2023-02-18T21:23:46;98088.52;;;7.22;73.63
56825;BME280;42705;50.326;18.772;2023-02-18T21:29:07;98093.63;;;7.13;73.92
56825;BME280;42705;50.326;18.772;2023-02-18T21:34:29;98086.20;;;7.02;74.07
56825;BME280;42705;50.326;18.772;2023-02-18T21:39:50;98099.64;;;6.96;74.33
56825;BME280;42705;50.326;18.772;2023-02-18T21:45:11;98111.13;;;6.94;74.74
56825;BME280;42705;50.326;18.772;2023-02-18T21:50:37;98113.98;;;6.87;74.89
56825;BME280;42705;50.326;18.772;2023-02-18T21:56:07;98123.60;;;6.86;75.08
56825;BME280;42705;50.326;18.772;2023-02-18T22:01:29;98127.38;;;6.88;75.26
56825;BME280;42705;50.326;18.772;2023-02-18T22:06:51;98137.81;;;6.84;75.27
56825;BME280;42705;50.326;18.772;2023-02-18T22:12:15;98148.62;;;6.84;75.45
56825;BME280;42705;50.326;18.772;2023-02-18T22:17:36;98148.31;;;6.78;75.54
56825;BME280;42705;50.326;18.772;2023-02-18T22:22:57;98155.18;;;6.71;75.35
56825;BME280;42705;50.326;18.772;2023-02-18T22:28:19;98155.59;;;6.68;75.63
56825;BME280;42705;50.326;18.772;2023-02-18T22:33:40;98158.08;;;6.62;75.74
56825;BME280;42705;50.326;18.772;2023-02-18T22:39:04;98161.73;;;6.58;75.93
56825;BME280;42705;50.326;18.772;2023-02-18T22:44:26;98174.70;;;6.52;75.61
56825;BME280;42705;50.326;18.772;2023-02-18T22:49:47;98179.83;;;6.50;75.83
56825;BME280;42705;50.326;18.772;2023-02-18T22:55:08;98184.73;;;6.50;75.65
56825;BME280;42705;50.326;18.772;2023-02-18T23:00:30;98184.98;;;6.47;75.66
56825;BME280;42705;50.326;18.772;2023-02-18T23:05:51;98199.77;;;6.46;75.78
56825;BME280;42705;50.326;18.772;2023-02-18T23:11:15;98213.02;;;6.47;75.70
56825;BME280;42705;50.326;18.772;2023-02-18T23:16:37;98223.27;;;6.43;75.79
56825;BME280;42705;50.326;18.772;2023-02-18T23:22:23;98221.48;;;6.41;75.68
56825;BME280;42705;50.326;18.772;2023-02-18T23:27:44;98229.59;;;6.40;75.84
56825;BME280;42705;50.326;18.772;2023-02-18T23:33:06;98236.34;;;6.33;75.62
56825;BME280;42705;50.326;18.772;2023-02-18T23:38:27;98232.46;;;6.29;75.81
56825;BME280;42705;50.326;18.772;2023-02-18T23:43:49;98225.95;;;6.28;76.10
56825;BME280;42705;50.326;18.772;2023-02-18T23:49:15;98222.31;;;6.26;75.98
56825;BME280;42705;50.326;18.772;2023-02-18T23:54:36;98221.02;;;6.25;76.28
56825;BME280;42705;50.326;18.772;2023-02-18T23:59:58;98217.58;;;6.19;76.37
